createdAt,value
2019-04-13T00:01:37.527Z,89.69
2019-04-13T00:04:04.442Z,89.86
2019-04-13T00:06:38.795Z,89.69
2019-04-13T00:09:07.699Z,89.52
2019-04-13T00:11:54.530Z,89.34
2019-04-13T00:14:21.559Z,88.99
2019-04-13T00:16:48.314Z,87.87
2019-04-13T00:19:14.925Z,87.91
2019-04-13T00:21:42.209Z,87.79
2019-04-13T00:24:09.351Z,87.32
2019-04-13T00:26:36.709Z,87.29
2019-04-13T00:29:04.936Z,86.88
2019-04-13T00:31:33.297Z,86.71
2019-04-13T00:34:00.543Z,87.18
2019-04-13T00:36:27.411Z,87.52
2019-04-13T00:38:55.090Z,87.96
2019-04-13T00:41:21.738Z,88.03
2019-04-13T00:43:48.326Z,88.42
2019-04-13T00:46:16.608Z,88.82
2019-04-13T00:48:43.206Z,88.89
2019-04-13T00:51:10.103Z,88.86
2019-04-13T00:53:37.484Z,89.24
2019-04-13T00:56:04.073Z,89.08
2019-04-13T00:58:30.762Z,89.06
2019-04-13T01:00:58.744Z,88.87
2019-04-13T01:03:25.857Z,88.68
2019-04-13T01:05:53.489Z,88.64
2019-04-13T01:08:20.255Z,88.69
2019-04-13T01:10:46.959Z,88.61
2019-04-13T01:13:13.649Z,89.05
2019-04-13T01:15:41.107Z,88.65
2019-04-13T01:18:07.680Z,88.76
2019-04-13T01:20:34.359Z,89.01
2019-04-13T01:23:00.940Z,89.01
2019-04-13T01:25:27.626Z,89.27
2019-04-13T01:27:54.255Z,89.49
2019-04-13T01:30:21.077Z,89.36
2019-04-13T01:32:49.102Z,89.46
2019-04-13T01:35:15.695Z,89.36
2019-04-13T01:37:43.432Z,89.75
2019-04-13T01:40:10.932Z,89.42
2019-04-13T01:42:37.501Z,89.17
2019-04-13T01:45:05.497Z,89.21
2019-04-13T01:47:32.115Z,89.23
2019-04-13T01:49:58.830Z,89.24
2019-04-13T01:52:25.562Z,89.18
2019-04-13T01:54:53.019Z,89.14
2019-04-13T01:57:19.998Z,89.50
2019-04-13T01:59:47.032Z,89.46
2019-04-13T02:02:31.237Z,89.50
2019-04-13T02:05:18.293Z,89.74
2019-04-13T02:07:51.857Z,90.12
2019-04-13T02:10:24.855Z,90.01
2019-04-13T02:12:52.506Z,90.51
2019-04-13T02:15:19.086Z,90.08
2019-04-13T02:17:45.950Z,90.03
2019-04-13T02:20:14.281Z,89.65
2019-04-13T02:22:40.909Z,89.62
2019-04-13T02:25:07.756Z,89.90
2019-04-13T02:27:35.609Z,89.97
2019-04-13T02:30:04.458Z,90.06
2019-04-13T02:32:31.221Z,90.12
2019-04-13T02:34:57.885Z,90.05
2019-04-13T02:37:26.200Z,90.11
2019-04-13T02:39:52.896Z,90.29
2019-04-13T02:42:20.067Z,90.29
2019-04-13T02:44:46.803Z,90.50
2019-04-13T02:47:14.430Z,90.90
2019-04-13T02:49:41.653Z,90.93
2019-04-13T02:52:08.870Z,90.97
2019-04-13T02:54:35.667Z,91.16
2019-04-13T02:57:02.352Z,91.41
2019-04-13T02:59:29.386Z,91.39
2019-04-13T03:01:58.162Z,91.59
2019-04-13T03:04:25.551Z,91.57
2019-04-13T03:06:53.169Z,91.59
2019-04-13T03:09:19.839Z,91.44
2019-04-13T03:11:46.785Z,91.28
2019-04-13T03:14:13.614Z,91.19
2019-04-13T03:17:14.871Z,91.19
2019-04-13T03:19:45.700Z,91.16
2019-04-13T03:22:12.294Z,91.27
2019-04-13T03:24:40.133Z,91.27
2019-04-13T03:27:06.776Z,91.27
2019-04-13T03:29:33.456Z,91.07
2019-04-13T03:32:00.393Z,90.98
2019-04-13T03:34:27.920Z,90.93
2019-04-13T03:36:54.629Z,91.26
2019-04-13T03:39:21.210Z,91.55
2019-04-13T03:41:48.005Z,91.80
2019-04-13T03:44:14.580Z,91.77
2019-04-13T03:46:41.356Z,91.83
2019-04-13T03:49:08.412Z,91.43
2019-04-13T03:51:35.943Z,91.44
2019-04-13T03:54:02.968Z,91.74
2019-04-13T03:56:29.953Z,91.73
2019-04-13T03:58:56.559Z,91.83
2019-04-13T04:01:23.258Z,91.74
2019-04-13T04:03:49.931Z,91.73
2019-04-13T04:06:16.947Z,91.59
2019-04-13T04:08:43.578Z,91.57
2019-04-13T04:11:10.476Z,91.53
2019-04-13T04:13:37.097Z,91.64
2019-04-13T04:16:04.220Z,91.50
2019-04-13T04:18:32.560Z,91.56
2019-04-13T04:20:59.633Z,91.62
2019-04-13T04:23:26.427Z,91.59
2019-04-13T04:25:53.079Z,91.63
2019-04-13T04:28:20.895Z,91.54
2019-04-13T04:30:47.887Z,91.41
2019-04-13T04:33:14.977Z,91.45
2019-04-13T04:35:42.060Z,91.43
2019-04-13T04:38:09.364Z,91.60
2019-04-13T04:40:35.947Z,91.70
2019-04-13T04:43:02.839Z,91.66
2019-04-13T04:45:29.589Z,91.45
2019-04-13T04:47:56.485Z,91.41
2019-04-13T04:50:23.219Z,91.45
2019-04-13T04:52:50.542Z,91.66
2019-04-13T04:55:17.278Z,91.46
2019-04-13T04:57:44.603Z,91.38
2019-04-13T05:00:11.429Z,91.69
2019-04-13T05:02:38.174Z,91.53
2019-04-13T05:05:06.730Z,91.45
2019-04-13T05:07:35.936Z,91.21
2019-04-13T05:10:03.968Z,91.12
2019-04-13T05:12:30.793Z,90.94
2019-04-13T05:14:57.838Z,90.88
2019-04-13T05:17:24.533Z,91.10
2019-04-13T05:19:52.376Z,90.92
2019-04-13T05:22:26.036Z,91.02
2019-04-13T05:24:47.945Z,90.92
2019-04-13T05:27:15.576Z,90.91
2019-04-13T05:29:43.416Z,90.89
2019-04-13T05:32:10.669Z,91.11
2019-04-13T05:34:37.530Z,91.66
2019-04-13T05:37:04.143Z,91.39
2019-04-13T05:39:31.026Z,91.08
2019-04-13T05:41:59.308Z,91.00
2019-04-13T05:44:25.981Z,90.57
2019-04-13T05:46:53.959Z,90.50
2019-04-13T05:49:20.578Z,90.70
2019-04-13T05:51:48.019Z,90.22
2019-04-13T05:54:14.635Z,90.29
2019-04-13T05:56:41.371Z,90.25
2019-04-13T05:59:08.606Z,90.25
2019-04-13T06:01:35.491Z,90.37
2019-04-13T06:04:02.277Z,90.21
2019-04-13T06:06:29.555Z,90.37
2019-04-13T06:08:56.211Z,90.12
2019-04-13T06:11:23.162Z,90.18
2019-04-13T06:13:50.434Z,90.21
2019-04-13T06:16:17.069Z,89.95
2019-04-13T06:18:43.685Z,90.55
2019-04-13T06:21:10.778Z,90.79
2019-04-13T06:23:37.815Z,90.77
2019-04-13T06:26:04.738Z,90.71
2019-04-13T06:28:31.553Z,90.36
2019-04-13T06:31:17.247Z,90.10
2019-04-13T06:33:50.951Z,90.07
2019-04-13T06:36:18.690Z,89.09
2019-04-13T06:38:45.606Z,88.59
2019-04-13T06:41:12.565Z,87.84
2019-04-13T06:43:39.728Z,86.60
2019-04-13T06:46:06.783Z,86.12
2019-04-13T06:48:34.599Z,86.53
2019-04-13T06:51:02.576Z,87.15
2019-04-13T06:53:29.871Z,86.86
2019-04-13T06:55:56.741Z,85.49
2019-04-13T06:58:27.012Z,84.67
2019-04-13T07:00:57.250Z,85.26
2019-04-13T07:03:24.452Z,84.88
2019-04-13T07:05:51.346Z,80.88
2019-04-13T07:08:38.397Z,76.75
2019-04-13T07:11:30.666Z,79.81
2019-04-13T07:14:00.213Z,84.38
2019-04-13T07:16:43.053Z,85.67
2019-04-13T07:19:07.933Z,86.13
2019-04-13T07:21:34.513Z,85.81
2019-04-13T07:24:01.178Z,85.50
2019-04-13T07:26:29.124Z,84.45
2019-04-13T07:28:55.713Z,83.89
2019-04-13T07:31:23.645Z,82.00
2019-04-13T07:33:51.323Z,80.24
2019-04-13T07:36:18.204Z,80.71
2019-04-13T07:38:47.582Z,83.14
2019-04-13T07:41:14.805Z,84.93
2019-04-13T07:43:45.691Z,84.82
2019-04-13T07:46:32.484Z,85.06
2019-04-13T07:49:13.783Z,84.94
2019-04-13T07:52:02.378Z,82.42
2019-04-13T07:54:29.867Z,79.54
2019-04-13T07:56:56.672Z,79.03
2019-04-13T07:59:23.266Z,79.46
2019-04-13T08:01:56.683Z,79.01
2019-04-13T08:04:19.064Z,81.27
2019-04-13T08:06:45.943Z,81.97
2019-04-13T08:09:12.740Z,83.26
2019-04-13T08:11:39.316Z,83.41
2019-04-13T08:14:20.337Z,83.00
2019-04-13T08:17:15.403Z,82.96
2019-04-13T08:19:44.528Z,81.66
2019-04-13T08:22:12.185Z,81.07
2019-04-13T08:24:38.966Z,83.09
2019-04-13T08:27:07.871Z,82.90
2019-04-13T08:29:34.557Z,85.21
2019-04-13T08:32:02.529Z,85.18
2019-04-13T08:34:29.517Z,85.41
2019-04-13T08:36:58.010Z,85.76
2019-04-13T08:39:26.890Z,85.79
2019-04-13T08:41:53.672Z,85.72
2019-04-13T08:44:20.669Z,86.21
2019-04-13T08:46:47.643Z,85.77
2019-04-13T08:49:14.243Z,84.34
2019-04-13T08:51:40.984Z,84.49
2019-04-13T08:54:07.801Z,85.04
2019-04-13T08:56:34.374Z,83.13
2019-04-13T08:59:02.088Z,81.41
2019-04-13T09:01:29.705Z,80.76
2019-04-13T09:03:56.572Z,78.81
2019-04-13T09:06:23.452Z,78.13
2019-04-13T09:08:50.355Z,74.50
2019-04-13T09:11:19.983Z,73.94
2019-04-13T09:13:45.698Z,71.81
2019-04-13T09:16:12.809Z,69.58
2019-04-13T09:19:03.838Z,73.29
2019-04-13T09:21:32.042Z,74.36
2019-04-13T09:23:58.775Z,77.84
2019-04-13T09:26:25.356Z,78.80
2019-04-13T09:28:52.633Z,78.54
2019-04-13T09:31:19.270Z,78.60
2019-04-13T09:33:46.833Z,79.25
2019-04-13T09:36:14.144Z,80.04
2019-04-13T09:38:42.867Z,80.06
2019-04-13T09:41:10.071Z,80.32
2019-04-13T09:43:45.552Z,80.27
2019-04-13T09:46:12.298Z,81.81
2019-04-13T09:48:41.793Z,81.90
2019-04-13T09:51:08.795Z,80.05
2019-04-13T09:53:35.483Z,79.39
2019-04-13T09:56:02.689Z,77.35
2019-04-13T09:58:29.683Z,79.36
2019-04-13T10:00:56.539Z,77.95
2019-04-13T10:03:23.299Z,78.64
2019-04-13T10:05:50.165Z,78.92
2019-04-13T10:08:20.237Z,79.18
2019-04-13T10:10:46.777Z,79.72
2019-04-13T10:13:27.589Z,79.27
2019-04-13T10:16:12.490Z,78.67
2019-04-13T10:18:43.453Z,81.02
2019-04-13T10:21:13.139Z,81.77
2019-04-13T10:23:39.464Z,81.67
2019-04-13T10:26:06.776Z,81.42
2019-04-13T10:28:36.119Z,81.12
2019-04-13T10:31:02.360Z,82.97
2019-04-13T10:33:29.279Z,81.45
2019-04-13T10:35:56.395Z,81.76
2019-04-13T10:38:25.374Z,82.84
2019-04-13T10:40:52.614Z,83.84
2019-04-13T10:43:20.411Z,84.79
2019-04-13T10:46:12.329Z,87.28
2019-04-13T10:48:44.915Z,88.28
2019-04-13T10:51:26.395Z,88.72
2019-04-13T10:53:53.240Z,89.07
2019-04-13T10:56:20.744Z,87.13
2019-04-13T10:58:47.483Z,86.53
2019-04-13T11:01:14.878Z,87.16
2019-04-13T11:03:41.543Z,87.16
2019-04-13T11:06:08.898Z,84.67
2019-04-13T11:08:35.612Z,78.72
2019-04-13T11:11:02.354Z,75.74
2019-04-13T11:13:29.214Z,72.79
2019-04-13T11:15:56.283Z,69.70
2019-04-13T11:18:23.041Z,68.32
2019-04-13T11:20:49.856Z,65.28
2019-04-13T11:23:17.129Z,56.56
2019-04-13T11:25:44.103Z,51.95
2019-04-13T11:28:11.026Z,58.07
2019-04-13T11:30:38.097Z,51.22
2019-04-13T11:33:04.984Z,46.33
2019-04-13T11:35:35.466Z,44.68
2019-04-13T11:38:00.181Z,46.56
2019-04-13T11:40:26.849Z,49.05
2019-04-13T11:43:11.882Z,43.11
2019-04-13T11:45:58.594Z,45.51
2019-04-13T11:48:51.509Z,44.25
2019-04-13T11:51:22.912Z,51.70
2019-04-13T11:53:51.488Z,58.50
2019-04-13T11:56:18.699Z,58.00
2019-04-13T11:58:45.494Z,62.27
2019-04-13T12:01:41.345Z,55.11
2019-04-13T12:04:21.265Z,58.01
2019-04-13T12:07:13.697Z,62.62
2019-04-13T12:09:58.886Z,65.23
2019-04-13T12:12:50.967Z,67.93
2019-04-13T12:15:46.903Z,72.02
2019-04-13T12:18:36.202Z,72.98
2019-04-13T12:21:22.085Z,73.39
2019-04-13T12:23:50.867Z,66.87
2019-04-13T12:26:17.721Z,59.16
2019-04-13T12:28:44.817Z,55.30
2019-04-13T12:31:12.493Z,48.28
2019-04-13T12:33:46.372Z,49.36
2019-04-13T12:36:13.885Z,43.22
2019-04-13T12:38:49.693Z,47.98
2019-04-13T12:41:17.853Z,49.16
2019-04-13T12:43:44.476Z,42.59
2019-04-13T12:46:12.308Z,48.84
2019-04-13T12:48:39.144Z,47.82
2019-04-13T12:51:05.917Z,52.33
2019-04-13T12:53:32.624Z,56.59
2019-04-13T12:55:59.245Z,53.82
2019-04-13T12:58:26.336Z,55.95
2019-04-13T13:00:59.311Z,52.96
2019-04-13T13:03:27.278Z,56.62
2019-04-13T13:05:55.089Z,58.08
2019-04-13T13:08:23.133Z,58.50
2019-04-13T13:10:49.701Z,60.59
2019-04-13T13:13:22.532Z,61.79
2019-04-13T13:15:49.525Z,61.02
2019-04-13T13:18:16.531Z,61.45
2019-04-13T13:20:43.206Z,59.80
2019-04-13T13:23:12.410Z,57.00
2019-04-13T13:25:38.695Z,58.55
2019-04-13T13:28:05.465Z,60.03
2019-04-13T13:30:32.384Z,64.29
2019-04-13T13:32:59.252Z,65.34
2019-04-13T13:35:26.066Z,66.24
2019-04-13T13:37:53.647Z,65.89
2019-04-13T13:40:31.278Z,63.55
2019-04-13T13:42:49.782Z,64.19
2019-04-13T13:45:16.670Z,63.30
2019-04-13T13:47:43.442Z,64.59
2019-04-13T13:50:11.472Z,63.37
2019-04-13T13:52:38.738Z,63.83
2019-04-13T13:55:08.011Z,63.09
2019-04-13T13:57:40.928Z,62.09
2019-04-13T14:00:12.121Z,62.27
2019-04-13T14:02:38.735Z,61.22
2019-04-13T14:05:05.833Z,61.87
2019-04-13T14:07:33.400Z,59.44
2019-04-13T14:10:12.383Z,61.67
2019-04-13T14:12:41.929Z,62.10
2019-04-13T14:15:11.846Z,60.01
2019-04-13T14:17:39.409Z,58.71
2019-04-13T14:20:07.126Z,59.22
2019-04-13T14:22:33.961Z,62.00
2019-04-13T14:25:00.608Z,61.32
2019-04-13T14:27:27.470Z,61.21
2019-04-13T14:29:55.011Z,60.18
2019-04-13T14:32:21.625Z,59.90
2019-04-13T14:34:50.685Z,61.59
2019-04-13T14:37:17.432Z,60.16
2019-04-13T14:39:44.436Z,61.20
2019-04-13T14:42:12.790Z,61.11
2019-04-13T14:44:39.765Z,62.74
2019-04-13T14:47:06.911Z,61.97
2019-04-13T14:49:34.481Z,61.37
2019-04-13T14:52:02.211Z,61.96
2019-04-13T14:54:28.811Z,62.18
2019-04-13T14:56:57.995Z,63.21
2019-04-13T14:59:24.727Z,61.04
2019-04-13T15:01:51.595Z,60.36
2019-04-13T15:04:18.847Z,60.36
2019-04-13T15:06:46.207Z,59.03
2019-04-13T15:09:17.314Z,58.64
2019-04-13T15:11:42.912Z,59.15
2019-04-13T15:14:10.892Z,59.91
2019-04-13T15:16:39.952Z,59.95
2019-04-13T15:19:26.213Z,59.29
2019-04-13T15:21:43.865Z,58.79
2019-04-13T15:24:13.540Z,57.11
2019-04-13T15:26:44.149Z,58.23
2019-04-13T15:29:11.148Z,58.46
2019-04-13T15:31:39.890Z,61.56
2019-04-13T15:34:07.385Z,59.90
2019-04-13T15:36:35.600Z,59.63
2019-04-13T15:39:07.259Z,61.40
2019-04-13T15:41:46.016Z,61.28
2019-04-13T15:44:06.414Z,61.12
2019-04-13T15:46:33.331Z,61.20
2019-04-13T15:49:00.527Z,61.43
2019-04-13T15:51:28.245Z,61.72
2019-04-13T15:53:57.586Z,61.78
2019-04-13T15:56:24.639Z,61.16
2019-04-13T15:58:51.567Z,61.42
2019-04-13T16:01:19.572Z,62.44
2019-04-13T16:03:46.960Z,62.56
2019-04-13T16:06:19.291Z,61.68
2019-04-13T16:09:11.879Z,61.85
2019-04-13T16:11:48.365Z,62.43
2019-04-13T16:14:09.806Z,64.19
2019-04-13T16:16:37.274Z,63.29
2019-04-13T16:19:05.060Z,63.28
2019-04-13T16:21:32.504Z,64.57
2019-04-13T16:24:00.544Z,62.67
2019-04-13T16:26:27.980Z,62.43
2019-04-13T16:29:27.268Z,63.84
2019-04-13T16:32:31.842Z,64.28
2019-04-13T16:35:20.112Z,65.02
2019-04-13T16:37:48.509Z,64.86
2019-04-13T16:40:16.303Z,65.67
2019-04-13T16:42:43.759Z,65.65
2019-04-13T16:45:23.863Z,66.67
2019-04-13T16:47:57.999Z,66.26
2019-04-13T16:50:38.891Z,67.11
2019-04-13T16:53:35.213Z,67.28
2019-04-13T16:56:06.834Z,66.08
2019-04-13T16:58:40.496Z,66.81
2019-04-13T17:01:23.725Z,66.60
2019-04-13T17:04:13.011Z,66.16
2019-04-13T17:06:39.873Z,65.92
2019-04-13T17:09:06.524Z,67.37
2019-04-13T17:11:34.765Z,66.42
2019-04-13T17:14:01.838Z,67.95
2019-04-13T17:16:29.818Z,67.41
2019-04-13T17:19:15.637Z,68.56
2019-04-13T17:21:48.062Z,68.63
2019-04-13T17:24:36.836Z,70.35
2019-04-13T17:27:23.615Z,70.51
2019-04-13T17:29:58.718Z,70.75
2019-04-13T17:32:31.829Z,71.19
2019-04-13T17:35:03.760Z,71.46
2019-04-13T17:37:30.577Z,71.16
2019-04-13T17:39:57.449Z,71.81
2019-04-13T17:42:44.947Z,72.03
2019-04-13T17:45:37.923Z,72.12
2019-04-13T17:48:25.306Z,71.74
2019-04-13T17:51:18.694Z,72.18
2019-04-13T17:54:12.500Z,71.76
2019-04-13T17:56:40.650Z,71.61
2019-04-13T17:59:21.982Z,72.61
2019-04-13T18:02:13.328Z,73.02
2019-04-13T18:05:12.962Z,73.24
2019-04-13T18:07:59.419Z,73.59
2019-04-13T18:10:45.994Z,73.70
2019-04-13T18:13:45.117Z,74.56
2019-04-13T18:16:29.989Z,74.99
2019-04-13T18:19:05.659Z,75.21
2019-04-13T18:21:32.941Z,76.02
2019-04-13T18:24:01.448Z,75.74
2019-04-13T18:26:29.236Z,76.43
2019-04-13T18:28:56.658Z,76.29
2019-04-13T18:31:25.046Z,76.69
2019-04-13T18:33:53.347Z,76.64
2019-04-13T18:36:21.359Z,76.69
2019-04-13T18:38:48.309Z,76.96
2019-04-13T18:41:16.540Z,76.96
2019-04-13T18:43:43.778Z,77.08
2019-04-13T18:46:11.311Z,76.85
2019-04-13T18:48:38.130Z,76.74
2019-04-13T18:51:06.352Z,76.53
2019-04-13T18:53:33.627Z,76.61
2019-04-13T18:56:00.389Z,76.72
2019-04-13T18:58:29.447Z,76.49
2019-04-13T19:00:57.208Z,76.58
2019-04-13T19:03:24.270Z,76.21
2019-04-13T19:05:50.919Z,76.87
2019-04-13T19:08:17.907Z,76.84
2019-04-13T19:10:44.612Z,76.74
2019-04-13T19:13:11.543Z,76.72
2019-04-13T19:15:38.486Z,76.73
2019-04-13T19:18:05.287Z,76.78
2019-04-13T19:20:32.023Z,76.75
2019-04-13T19:22:59.111Z,76.76
2019-04-13T19:25:26.196Z,76.48
2019-04-13T19:27:52.851Z,76.67
2019-04-13T19:30:19.728Z,76.79
2019-04-13T19:32:46.474Z,76.68
2019-04-13T19:35:13.540Z,77.01
2019-04-13T19:37:41.118Z,76.70
2019-04-13T19:40:08.438Z,76.94
2019-04-13T19:42:35.715Z,76.54
2019-04-13T19:45:03.260Z,76.70
2019-04-13T19:47:31.215Z,76.09
2019-04-13T19:49:57.941Z,75.51
2019-04-13T19:52:30.597Z,75.43
2019-04-13T19:54:57.204Z,75.41
2019-04-13T19:57:24.003Z,74.96
2019-04-13T19:59:51.644Z,74.75
2019-04-13T20:02:20.552Z,74.93
2019-04-13T20:04:47.426Z,74.84
2019-04-13T20:07:14.535Z,74.39
2019-04-13T20:09:41.097Z,74.34
2019-04-13T20:12:08.763Z,74.90
2019-04-13T20:14:35.356Z,74.46
2019-04-13T20:17:02.118Z,74.85
2019-04-13T20:19:28.908Z,74.61
2019-04-13T20:21:55.760Z,74.39
2019-04-13T20:24:22.988Z,74.23
2019-04-13T20:26:51.219Z,74.44
2019-04-13T20:29:18.806Z,73.43
2019-04-13T20:31:46.329Z,73.45
2019-04-13T20:34:14.172Z,73.04
2019-04-13T20:36:42.469Z,73.10
2019-04-13T20:39:11.312Z,73.09
2019-04-13T20:41:48.934Z,72.30
2019-04-13T20:44:13.220Z,72.72
2019-04-13T20:46:38.897Z,72.91
2019-04-13T20:49:08.553Z,73.11
2019-04-13T20:51:36.684Z,72.71
2019-04-13T20:54:03.425Z,73.18
2019-04-13T20:56:30.336Z,73.13
2019-04-13T20:58:57.601Z,72.74
2019-04-13T21:01:24.241Z,72.00
2019-04-13T21:03:53.454Z,72.11
2019-04-13T21:06:21.832Z,71.40
2019-04-13T21:08:51.333Z,71.67
2019-04-13T21:11:17.357Z,71.89
2019-04-13T21:13:57.448Z,72.38
2019-04-13T21:16:14.887Z,72.87
2019-04-13T21:18:42.836Z,73.00
2019-04-13T21:21:10.678Z,73.55
2019-04-13T21:23:38.457Z,74.26
2019-04-13T21:26:06.279Z,74.89
2019-04-13T21:28:34.309Z,74.72
2019-04-13T21:31:02.150Z,75.04
2019-04-13T21:33:30.001Z,74.58
2019-04-13T21:35:57.767Z,75.12
2019-04-13T21:38:25.650Z,75.51
2019-04-13T21:40:53.596Z,75.98
2019-04-13T21:43:21.480Z,75.97
2019-04-13T21:45:49.270Z,75.95
2019-04-13T21:48:15.812Z,75.64
2019-04-13T21:50:57.103Z,75.23
2019-04-13T21:53:33.362Z,75.36
2019-04-13T21:55:59.992Z,75.60
2019-04-13T21:58:27.232Z,75.74
2019-04-13T22:01:30.011Z,76.51
2019-04-13T22:03:58.504Z,76.69
2019-04-13T22:06:25.680Z,77.00
2019-04-13T22:08:53.418Z,77.22
2019-04-13T22:11:21.203Z,77.74
2019-04-13T22:13:48.977Z,78.15
2019-04-13T22:16:16.902Z,78.04
2019-04-13T22:18:43.830Z,78.16
2019-04-13T22:21:11.161Z,78.43
2019-04-13T22:23:38.852Z,77.77
2019-04-13T22:26:06.784Z,77.64
2019-04-13T22:28:38.881Z,77.65
2019-04-13T22:31:31.110Z,77.46
2019-04-13T22:33:59.020Z,77.55
2019-04-13T22:36:29.248Z,77.73
2019-04-13T22:38:56.977Z,77.59
2019-04-13T22:41:24.513Z,76.98
2019-04-13T22:43:53.081Z,76.81
2019-04-13T22:46:19.895Z,76.86
2019-04-13T22:48:57.071Z,76.30
2019-04-13T22:51:36.279Z,76.21
2019-04-13T22:54:25.881Z,76.21
2019-04-13T22:57:19.479Z,76.14
2019-04-13T22:59:46.516Z,75.91
2019-04-13T23:02:34.230Z,75.52
2019-04-13T23:05:00.945Z,75.90
2019-04-13T23:07:28.294Z,76.17
2019-04-13T23:09:56.306Z,76.54
2019-04-13T23:12:22.924Z,76.65
2019-04-13T23:14:56.745Z,77.32
2019-04-13T23:17:18.093Z,77.16
2019-04-13T23:19:45.719Z,76.79
2019-04-13T23:22:12.548Z,76.72
2019-04-13T23:24:39.471Z,76.09
2019-04-13T23:27:07.252Z,76.66
2019-04-13T23:29:34.626Z,76.11
2019-04-13T23:32:01.586Z,76.69
2019-04-13T23:34:28.940Z,76.93
2019-04-13T23:36:55.733Z,76.37
2019-04-13T23:39:23.475Z,76.42
2019-04-13T23:41:51.841Z,76.36
2019-04-13T23:44:20.205Z,76.26
2019-04-13T23:46:48.275Z,76.00
2019-04-13T23:49:15.125Z,75.60
2019-04-13T23:51:42.522Z,75.93
2019-04-13T23:54:10.689Z,76.23
2019-04-13T23:56:56.361Z,76.48
2019-04-13T23:59:28.653Z,76.32
